Time;durP1;ratioP1;P1;durP2;ratioP2;P2;SDS_P1;SDS_P2;PMS_P1;PMS_P2;Temp;Humidity;BMP_temperature;BMP_pressure;BME280_temperature;BME280_humidity;BME280_pressure;Samples;Min_cycle;Max_cycle;Signal;HPM_P1;HPM_P2
2024/04/07 00:02:03;;;;;;;3.60;2.20;;;;;;;;;;6042773;23;20180;-86
2024/04/07 00:04:29;;;;;;;2.37;2.17;;;;;;;;;;6067036;23;20180;-86
2024/04/07 00:06:56;;;;;;;2.47;2.27;;;;;;;;;;6043215;23;20164;-86
2024/04/07 00:09:23;;;;;;;3.47;2.50;;;;;;;;;;6066588;23;20183;-86
2024/04/07 00:11:50;;;;;;;2.53;2.20;;;;;;;;;;6066351;23;20272;-86
2024/04/07 00:14:16;;;;;;;3.50;2.43;;;;;;;;;;6019066;23;20173;-86
2024/04/07 00:16:42;;;;;;;2.53;2.33;;;;;;;;;;6042496;23;20266;-86
2024/04/07 00:19:11;;;;;;;2.93;2.33;;;;;;;;;;6042642;23;20187;-86
2024/04/07 00:21:43;;;;;;;2.73;2.27;;;;;;;;;;6020081;23;20597;-86
2024/04/07 00:24:12;;;;;;;2.43;2.23;;;;;;;;;;6042860;23;20168;-87
2024/04/07 00:26:38;;;;;;;2.73;2.30;;;;;;;;;;6019217;23;20234;-86
2024/04/07 00:29:07;;;;;;;2.30;2.10;;;;;;;;;;6043243;23;20646;-86
2024/04/07 00:31:34;;;;;;;2.13;1.97;;;;;;;;;;6042437;23;20197;-85
2024/04/07 00:34:01;;;;;;;2.20;2.07;;;;;;;;;;6042361;23;20203;-86
2024/04/07 00:36:28;;;;;;;2.20;2.00;;;;;;;;;;6067161;23;20187;-86
2024/04/07 00:38:54;;;;;;;2.80;2.10;;;;;;;;;;6023981;23;20163;-86
2024/04/07 00:41:21;;;;;;;5.10;2.00;;;;;;;;;;6047245;23;20619;-86
2024/04/07 00:43:47;;;;;;;2.30;2.10;;;;;;;;;;6047713;23;20164;-85
2024/04/07 00:46:13;;;;;;;2.00;1.90;;;;;;;;;;6023294;23;20294;-86
2024/04/07 00:48:39;;;;;;;2.70;2.00;;;;;;;;;;6047029;23;20168;-87
2024/04/07 00:51:05;;;;;;;2.40;2.03;;;;;;;;;;6023071;23;20281;-86
2024/04/07 00:53:31;;;;;;;2.03;1.93;;;;;;;;;;6047588;23;20181;-86
2024/04/07 00:55:57;;;;;;;2.10;2.00;;;;;;;;;;6023504;23;20619;-86
2024/04/07 00:58:24;;;;;;;2.27;2.07;;;;;;;;;;6023998;23;20179;-86
2024/04/07 01:00:50;;;;;;;2.40;2.20;;;;;;;;;;6071380;23;20170;-87
2024/04/07 01:03:17;;;;;;;2.00;1.83;;;;;;;;;;6024019;23;20174;-86
2024/04/07 01:05:43;;;;;;;2.53;2.10;;;;;;;;;;6023362;23;20197;-86
2024/04/07 01:08:10;;;;;;;3.13;2.10;;;;;;;;;;6046462;23;20701;-86
2024/04/07 01:10:36;;;;;;;2.47;1.70;;;;;;;;;;6070247;23;20239;-86
2024/04/07 01:13:04;;;;;;;2.13;1.93;;;;;;;;;;6070780;23;20190;-86
2024/04/07 01:15:36;;;;;;;1.93;1.77;;;;;;;;;;6070942;23;20221;-86
2024/04/07 01:18:05;;;;;;;1.90;1.70;;;;;;;;;;6047804;23;20226;-87
2024/04/07 01:20:32;;;;;;;1.90;1.70;;;;;;;;;;6046918;23;20674;-86
2024/04/07 01:22:59;;;;;;;1.70;1.60;;;;;;;;;;6046917;23;20170;-86
2024/04/07 01:25:25;;;;;;;1.90;1.80;;;;;;;;;;6046382;23;20176;-86
2024/04/07 01:27:56;;;;;;;1.83;1.67;;;;;;;;;;6023351;23;20178;-86
2024/04/07 01:30:22;;;;;;;2.80;1.87;;;;;;;;;;6023282;23;20172;-86
2024/04/07 01:32:48;;;;;;;2.70;1.70;;;;;;;;;;6023053;23;20195;-85
2024/04/07 01:35:14;;;;;;;2.27;1.70;;;;;;;;;;6046517;23;20184;-86
2024/04/07 01:37:40;;;;;;;1.83;1.60;;;;;;;;;;6022807;23;20287;-88
2024/04/07 01:40:09;;;;;;;2.40;1.87;;;;;;;;;;6046114;23;20233;-86
2024/04/07 01:42:40;;;;;;;2.57;1.70;;;;;;;;;;6071049;23;20635;-87
2024/04/07 01:45:07;;;;;;;2.47;1.80;;;;;;;;;;6046184;23;20184;-87
2024/04/07 01:47:34;;;;;;;1.83;1.73;;;;;;;;;;6046797;23;20170;-86
2024/04/07 01:50:00;;;;;;;3.33;2.03;;;;;;;;;;6046578;23;20195;-86
2024/04/07 01:52:28;;;;;;;2.43;1.80;;;;;;;;;;6046538;23;20191;-87
2024/04/07 01:54:54;;;;;;;1.97;1.67;;;;;;;;;;6046882;23;20174;-87
2024/04/07 01:57:23;;;;;;;2.40;2.00;;;;;;;;;;6070505;23;20173;-86
2024/04/07 01:59:49;;;;;;;1.60;1.50;;;;;;;;;;6047075;23;20279;-86
2024/04/07 02:02:19;;;;;;;2.27;2.03;;;;;;;;;;6046611;23;20178;-87
2024/04/07 02:04:54;;;;;;;1.80;1.70;;;;;;;;;;6025282;23;20171;-87
2024/04/07 02:07:20;;;;;;;2.07;1.90;;;;;;;;;;6023129;23;20178;-86
2024/04/07 02:09:47;;;;;;;2.00;1.70;;;;;;;;;;6023391;23;20219;-87
2024/04/07 02:12:14;;;;;;;2.40;1.90;;;;;;;;;;6023122;23;20194;-87
2024/04/07 02:14:43;;;;;;;2.50;2.30;;;;;;;;;;6070632;23;20162;-86
2024/04/07 02:17:11;;;;;;;2.47;2.17;;;;;;;;;;6046496;23;20177;-87
2024/04/07 02:19:41;;;;;;;2.30;2.10;;;;;;;;;;6023150;23;20177;-87
2024/04/07 02:22:09;;;;;;;2.33;2.07;;;;;;;;;;6046607;23;20187;-87
2024/04/07 02:24:36;;;;;;;2.13;2.03;;;;;;;;;;6023047;23;20213;-86
2024/04/07 02:27:05;;;;;;;2.67;2.40;;;;;;;;;;6047084;23;20166;-87
2024/04/07 02:29:45;;;;;;;2.80;2.10;;;;;;;;;;6051440;23;20388;-86
2024/04/07 02:32:15;;;;;;;2.40;2.20;;;;;;;;;;6046290;23;20574;-87
2024/04/07 02:34:44;;;;;;;2.50;2.30;;;;;;;;;;6047002;23;20165;-86
2024/04/07 02:37:10;;;;;;;2.50;2.30;;;;;;;;;;6017602;23;20284;-87
2024/04/07 02:39:35;;;;;;;3.57;2.60;;;;;;;;;;6041935;23;20190;-87
2024/04/07 02:42:01;;;;;;;2.40;2.30;;;;;;;;;;6065745;23;20613;-87
2024/04/07 02:49:58;;;;;;;2.47;2.27;;;;;;;;;;6041677;23;20189;-88
2024/04/07 02:52:24;;;;;;;2.40;2.20;;;;;;;;;;6041546;23;20280;-88
2024/04/07 02:54:51;;;;;;;2.37;2.17;;;;;;;;;;6041646;23;20167;-87
2024/04/07 02:57:17;;;;;;;2.87;2.40;;;;;;;;;;6065815;23;20174;-88
2024/04/07 02:59:45;;;;;;;2.60;2.40;;;;;;;;;;6018415;23;20204;-87
2024/04/07 03:02:12;;;;;;;2.57;2.37;;;;;;;;;;6018365;23;20613;-88
2024/04/07 03:04:38;;;;;;;2.50;2.30;;;;;;;;;;6041868;23;20174;-88
2024/04/07 03:07:04;;;;;;;2.40;2.20;;;;;;;;;;6018047;23;20177;-88
2024/04/07 03:09:31;;;;;;;3.07;2.50;;;;;;;;;;6041894;23;20189;-87
2024/04/07 03:11:56;;;;;;;2.90;2.70;;;;;;;;;;6019139;23;20189;-88
2024/04/07 03:14:23;;;;;;;2.50;2.30;;;;;;;;;;6067347;23;20173;-87
2024/04/07 03:16:50;;;;;;;4.37;2.20;;;;;;;;;;6066640;23;20197;-87
2024/04/07 03:19:16;;;;;;;2.57;2.37;;;;;;;;;;6067135;23;20172;-88
2024/04/07 03:21:42;;;;;;;2.93;2.60;;;;;;;;;;6043180;23;20188;-87
2024/04/07 03:24:09;;;;;;;2.57;2.37;;;;;;;;;;6067171;23;20169;-87
2024/04/07 03:26:34;;;;;;;2.30;2.10;;;;;;;;;;6067477;23;20162;-87
2024/04/07 03:29:03;;;;;;;2.60;2.40;;;;;;;;;;6043154;23;20169;-88
2024/04/07 03:31:30;;;;;;;2.70;2.20;;;;;;;;;;6043227;23;20205;-87
2024/04/07 03:33:57;;;;;;;2.67;2.30;;;;;;;;;;6020098;23;20466;-87
2024/04/07 03:36:23;;;;;;;2.97;2.20;;;;;;;;;;6066851;23;20231;-87
2024/04/07 03:38:51;;;;;;;2.50;2.30;;;;;;;;;;6043388;23;20173;-88
2024/04/07 03:41:17;;;;;;;2.93;2.60;;;;;;;;;;6043305;23;20165;-88
2024/04/07 03:43:43;;;;;;;2.43;2.23;;;;;;;;;;6066985;23;20251;-87
2024/04/07 03:46:10;;;;;;;2.60;2.40;;;;;;;;;;6019463;23;20177;-88
2024/04/07 03:48:42;;;;;;;2.73;2.53;;;;;;;;;;6043833;23;20252;-87
2024/04/07 03:51:08;;;;;;;2.50;2.30;;;;;;;;;;6019565;23;20217;-89
2024/04/07 03:53:34;;;;;;;2.70;2.50;;;;;;;;;;6042712;23;20176;-88
2024/04/07 03:56:02;;;;;;;3.40;2.43;;;;;;;;;;6020019;23;20188;-88
2024/04/07 03:58:28;;;;;;;2.47;2.27;;;;;;;;;;6067139;23;20629;-89
2024/04/07 04:01:00;;;;;;;2.60;2.40;;;;;;;;;;6066740;23;20172;-87
2024/04/07 04:03:27;;;;;;;2.50;2.30;;;;;;;;;;6043158;23;20229;-88
2024/04/07 04:05:54;;;;;;;3.80;2.40;;;;;;;;;;6066398;23;20161;-88
2024/04/07 04:08:21;;;;;;;2.60;2.40;;;;;;;;;;6043257;23;20165;-88
2024/04/07 04:10:47;;;;;;;2.53;2.33;;;;;;;;;;6018996;23;20264;-89
2024/04/07 04:13:13;;;;;;;2.63;2.43;;;;;;;;;;6042903;23;20216;-87
2024/04/07 04:15:40;;;;;;;3.50;2.70;;;;;;;;;;6018936;23;20173;-89
2024/04/07 04:18:06;;;;;;;3.03;2.73;;;;;;;;;;6042575;23;20173;-88
2024/04/07 04:20:32;;;;;;;2.73;2.53;;;;;;;;;;6018968;23;20165;-89
2024/04/07 04:23:01;;;;;;;2.90;2.70;;;;;;;;;;6042160;23;20180;-88
2024/04/07 04:25:37;;;;;;;3.10;2.90;;;;;;;;;;6043130;23;20168;-88
2024/04/07 04:28:04;;;;;;;2.90;2.70;;;;;;;;;;6019737;23;20172;-88
2024/04/07 04:30:30;;;;;;;2.90;2.70;;;;;;;;;;6042584;23;20203;-88
2024/04/07 04:32:59;;;;;;;2.70;2.50;;;;;;;;;;6019739;23;20188;-89
2024/04/07 04:35:29;;;;;;;3.80;2.60;;;;;;;;;;6066559;23;20235;-90
2024/04/07 04:37:57;;;;;;;2.70;2.50;;;;;;;;;;6042562;23;20252;-88
2024/04/07 04:40:30;;;;;;;2.93;2.63;;;;;;;;;;6018928;23;20173;-88
2024/04/07 04:42:57;;;;;;;3.47;2.90;;;;;;;;;;6019687;23;20161;-88
2024/04/07 04:45:23;;;;;;;4.80;2.90;;;;;;;;;;6066859;23;20263;-89
2024/04/07 04:47:49;;;;;;;4.20;2.60;;;;;;;;;;6066659;23;20197;-88
2024/04/07 04:50:15;;;;;;;3.17;2.87;;;;;;;;;;6066027;23;20272;-88
2024/04/07 04:52:41;;;;;;;3.33;2.90;;;;;;;;;;6042699;23;20188;-88
2024/04/07 04:55:07;;;;;;;3.10;2.80;;;;;;;;;;6090327;23;20639;-88
2024/04/07 04:57:35;;;;;;;3.30;3.00;;;;;;;;;;6042456;23;20168;-88
2024/04/07 05:00:01;;;;;;;4.37;2.77;;;;;;;;;;6042503;23;20591;-87
2024/04/07 05:02:27;;;;;;;3.67;2.43;;;;;;;;;;6066317;23;20268;-88
2024/04/07 05:04:57;;;;;;;2.27;2.10;;;;;;;;;;6043644;23;20169;-88
2024/04/07 05:07:23;;;;;;;3.00;2.53;;;;;;;;;;6066259;23;20212;-89
2024/04/07 05:09:49;;;;;;;2.77;2.50;;;;;;;;;;6042277;23;20176;-87
2024/04/07 05:12:16;;;;;;;2.60;2.40;;;;;;;;;;6018565;23;20216;-88
2024/04/07 05:14:42;;;;;;;2.57;2.37;;;;;;;;;;6042655;23;20636;-87
2024/04/07 05:17:09;;;;;;;2.60;2.40;;;;;;;;;;6042451;23;20260;-87
2024/04/07 05:19:35;;;;;;;2.80;2.27;;;;;;;;;;6018880;23;20165;-88
2024/04/07 05:22:03;;;;;;;3.20;2.90;;;;;;;;;;6066294;23;20180;-87
2024/04/07 05:24:29;;;;;;;4.27;3.87;;;;;;;;;;6042522;23;20173;-89
2024/04/07 05:26:56;;;;;;;4.07;3.70;;;;;;;;;;6042406;23;20555;-88
2024/04/07 05:29:22;;;;;;;4.80;4.40;;;;;;;;;;6042361;23;20181;-87
2024/04/07 05:31:50;;;;;;;6.07;5.57;;;;;;;;;;6042101;23;20656;-88
2024/04/07 05:34:16;;;;;;;4.30;3.90;;;;;;;;;;6018819;23;20616;-87
2024/04/07 05:36:42;;;;;;;4.90;3.40;;;;;;;;;;6069385;23;20280;-89
2024/04/07 05:39:07;;;;;;;4.27;3.90;;;;;;;;;;6023800;23;20156;-87
2024/04/07 05:41:34;;;;;;;4.90;4.10;;;;;;;;;;6023584;23;20196;-88
2024/04/07 05:44:00;;;;;;;4.53;2.80;;;;;;;;;;6047526;23;20227;-88
2024/04/07 05:46:26;;;;;;;3.90;3.00;;;;;;;;;;6023394;23;20168;-87
2024/04/07 05:48:55;;;;;;;2.83;2.63;;;;;;;;;;6047125;23;20172;-87
2024/04/07 05:51:21;;;;;;;3.40;2.87;;;;;;;;;;6047059;23;20188;-87
2024/04/07 05:53:48;;;;;;;3.17;2.87;;;;;;;;;;6047683;23;20168;-87
2024/04/07 05:56:14;;;;;;;3.40;3.10;;;;;;;;;;6070854;23;20197;-87
2024/04/07 05:58:40;;;;;;;4.33;2.87;;;;;;;;;;6023549;23;20646;-87
2024/04/07 06:01:07;;;;;;;3.17;2.80;;;;;;;;;;6071208;23;20296;-87
2024/04/07 06:03:33;;;;;;;3.13;2.83;;;;;;;;;;6047305;23;20257;-87
2024/04/07 06:06:01;;;;;;;2.63;2.43;;;;;;;;;;6023461;23;20180;-87
2024/04/07 06:08:27;;;;;;;3.77;2.87;;;;;;;;;;6047099;23;20175;-86
2024/04/07 06:10:53;;;;;;;2.90;2.70;;;;;;;;;;6047189;23;20181;-87
2024/04/07 06:13:19;;;;;;;3.30;3.00;;;;;;;;;;6071314;23;20171;-86
2024/04/07 06:15:45;;;;;;;3.63;2.83;;;;;;;;;;6023636;23;20611;-86
2024/04/07 06:18:11;;;;;;;4.13;3.00;;;;;;;;;;6023435;23;20610;-86
2024/04/07 06:20:39;;;;;;;3.63;3.33;;;;;;;;;;6022553;23;20170;-86
2024/04/07 06:23:06;;;;;;;3.83;3.40;;;;;;;;;;6023671;23;20688;-86
2024/04/07 06:25:32;;;;;;;4.50;4.10;;;;;;;;;;6046191;23;20167;-86
2024/04/07 06:27:58;;;;;;;4.67;4.27;;;;;;;;;;6047290;23;20195;-86
2024/04/07 06:30:26;;;;;;;4.90;4.40;;;;;;;;;;6023584;23;20191;-85
2024/04/07 06:32:55;;;;;;;5.70;5.13;;;;;;;;;;6024646;23;20650;-86
2024/04/07 06:35:21;;;;;;;5.50;5.10;;;;;;;;;;6024178;23;20183;-86
2024/04/07 06:37:47;;;;;;;6.83;5.57;;;;;;;;;;6042771;23;20204;-86
2024/04/07 06:40:13;;;;;;;6.70;6.00;;;;;;;;;;6066942;23;20165;-85
2024/04/07 06:42:40;;;;;;;5.87;5.37;;;;;;;;;;6042686;23;20200;-86
2024/04/07 06:45:07;;;;;;;7.10;5.90;;;;;;;;;;6019030;23;20257;-85
2024/04/07 06:47:37;;;;;;;5.97;5.47;;;;;;;;;;6044339;23;20173;-86
2024/04/07 06:50:02;;;;;;;6.20;5.60;;;;;;;;;;6068234;23;20268;-86
2024/04/07 06:52:49;;;;;;;5.87;5.33;;;;;;;;;;6047366;23;20201;-86
2024/04/07 06:55:20;;;;;;;6.53;6.00;;;;;;;;;;6068135;23;20901;-85
2024/04/07 06:57:46;;;;;;;6.87;5.67;;;;;;;;;;6020399;23;20252;-86
2024/04/07 07:00:13;;;;;;;7.93;6.23;;;;;;;;;;6043962;23;20177;-86
2024/04/07 07:02:39;;;;;;;7.07;6.43;;;;;;;;;;6042964;23;20242;-86
2024/04/07 07:05:06;;;;;;;7.67;6.97;;;;;;;;;;6067229;23;20192;-86
2024/04/07 07:07:35;;;;;;;6.83;6.17;;;;;;;;;;6067035;23;20184;-86
2024/04/07 07:10:03;;;;;;;6.90;6.30;;;;;;;;;;6066856;23;20162;-86
2024/04/07 07:12:33;;;;;;;7.67;6.57;;;;;;;;;;6043027;23;20243;-86
2024/04/07 07:14:59;;;;;;;7.57;6.90;;;;;;;;;;6042858;23;20180;-86
2024/04/07 07:17:25;;;;;;;7.27;6.57;;;;;;;;;;6064886;23;20260;-87
2024/04/07 07:19:51;;;;;;;8.20;7.40;;;;;;;;;;6017792;23;20208;-86
2024/04/07 07:22:17;;;;;;;7.23;6.63;;;;;;;;;;6042595;23;20609;-86
2024/04/07 07:24:46;;;;;;;8.73;7.07;;;;;;;;;;6043178;23;20679;-87
2024/04/07 07:27:11;;;;;;;7.40;6.70;;;;;;;;;;6018984;23;20348;-86
2024/04/07 07:29:37;;;;;;;7.37;6.70;;;;;;;;;;6042282;23;20173;-86
2024/04/07 07:32:05;;;;;;;7.97;6.43;;;;;;;;;;6042386;23;20186;-86
2024/04/07 07:34:32;;;;;;;8.20;7.40;;;;;;;;;;6019505;23;20197;-86
2024/04/07 07:36:58;;;;;;;7.10;6.50;;;;;;;;;;6041581;23;20257;-86
2024/04/07 07:39:26;;;;;;;8.20;6.30;;;;;;;;;;6066828;23;20227;-86
2024/04/07 07:41:53;;;;;;;7.47;6.77;;;;;;;;;;6018829;23;20171;-86
2024/04/07 07:44:20;;;;;;;7.50;6.80;;;;;;;;;;6041991;23;20175;-86
2024/04/07 07:46:46;;;;;;;7.10;6.50;;;;;;;;;;6042418;23;20261;-86
2024/04/07 07:49:12;;;;;;;7.40;6.80;;;;;;;;;;6019357;23;20176;-85
2024/04/07 07:51:39;;;;;;;6.80;6.10;;;;;;;;;;6040885;23;20203;-86
2024/04/07 07:54:06;;;;;;;7.30;6.50;;;;;;;;;;6066122;23;20175;-86
2024/04/07 07:56:32;;;;;;;7.47;6.47;;;;;;;;;;6017973;23;20174;-86
2024/04/07 07:58:58;;;;;;;6.83;6.23;;;;;;;;;;6042185;23;20172;-86
2024/04/07 08:01:24;;;;;;;7.50;6.80;;;;;;;;;;6065758;23;20614;-86
2024/04/07 08:03:50;;;;;;;7.60;6.90;;;;;;;;;;6066402;23;20172;-85
2024/04/07 08:06:15;;;;;;;7.33;6.73;;;;;;;;;;6066021;23;20633;-86
2024/04/07 08:08:44;;;;;;;7.03;6.50;;;;;;;;;;6042767;23;20261;-85
2024/04/07 08:11:10;;;;;;;7.30;6.60;;;;;;;;;;6042487;23;20533;-86
2024/04/07 08:13:38;;;;;;;7.50;6.90;;;;;;;;;;6066200;23;20172;-85
2024/04/07 08:16:04;;;;;;;7.73;7.00;;;;;;;;;;6042281;23;20645;-86
2024/04/07 08:18:31;;;;;;;7.27;6.77;;;;;;;;;;6018710;23;20167;-86
2024/04/07 08:20:57;;;;;;;9.70;7.40;;;;;;;;;;6066318;23;20167;-85
2024/04/07 08:23:23;;;;;;;8.40;7.37;;;;;;;;;;6042228;23;20200;-85
2024/04/07 08:25:51;;;;;;;7.77;7.17;;;;;;;;;;6019251;23;20180;-85
2024/04/07 08:28:19;;;;;;;7.40;6.80;;;;;;;;;;6042230;23;20240;-86
2024/04/07 08:30:45;;;;;;;8.10;7.40;;;;;;;;;;6066133;23;20259;-85
2024/04/07 08:33:11;;;;;;;7.40;6.80;;;;;;;;;;6018793;23;20212;-86
2024/04/07 08:35:37;;;;;;;7.70;7.00;;;;;;;;;;6042077;23;20215;-85
2024/04/07 08:38:03;;;;;;;7.80;7.10;;;;;;;;;;6065915;23;20201;-85
2024/04/07 08:40:29;;;;;;;7.63;6.97;;;;;;;;;;6018442;23;20180;-85
2024/04/07 08:42:56;;;;;;;7.70;7.00;;;;;;;;;;6066223;23;20197;-85
2024/04/07 08:45:22;;;;;;;7.13;6.43;;;;;;;;;;6018783;23;20203;-85
2024/04/07 08:47:50;;;;;;;6.83;6.30;;;;;;;;;;6041906;23;20175;-85
2024/04/07 08:50:17;;;;;;;6.37;5.73;;;;;;;;;;6065671;23;20206;-85
2024/04/07 08:52:44;;;;;;;6.20;5.63;;;;;;;;;;6017946;23;20203;-85
2024/04/07 08:55:10;;;;;;;6.10;5.50;;;;;;;;;;6065184;23;20169;-85
2024/04/07 08:57:40;;;;;;;6.47;5.27;;;;;;;;;;6063296;23;20315;-85
2024/04/07 09:00:08;;;;;;;5.80;5.30;;;;;;;;;;6017525;23;20203;-85
2024/04/07 09:02:35;;;;;;;5.73;5.13;;;;;;;;;;6040937;23;20176;-84
2024/04/07 09:05:03;;;;;;;5.78;5.25;;;;;;;;;;6065174;23;20207;-85
2024/04/07 09:07:29;;;;;;;5.68;5.15;;;;;;;;;;6017640;23;20268;-84
2024/04/07 09:09:58;;;;;;;5.95;5.35;;;;;;;;;;6064998;23;20275;-84
2024/04/07 09:12:35;;;;;;;6.13;5.55;;;;;;;;;;6065058;23;20188;-85
2024/04/07 09:15:21;;;;;;;4.97;4.47;;;;;;;;;;6045274;23;20177;-84
2024/04/07 09:17:48;;;;;;;5.57;4.65;;;;;;;;;;6064914;23;20200;-84
2024/04/07 09:20:17;;;;;;;5.80;4.82;;;;;;;;;;6017675;23;20165;-85
2024/04/07 09:22:45;;;;;;;5.18;4.65;;;;;;;;;;6065323;23;20176;-85
2024/04/07 09:25:16;;;;;;;5.05;4.55;;;;;;;;;;6065781;23;20196;-84
2024/04/07 09:27:43;;;;;;;5.50;4.40;;;;;;;;;;6041312;23;20256;-84
2024/04/07 09:30:15;;;;;;;4.90;4.15;;;;;;;;;;6041564;23;20215;-84
2024/04/07 09:32:41;;;;;;;4.80;4.07;;;;;;;;;;6017852;23;20659;-84
2024/04/07 09:35:07;;;;;;;4.90;4.32;;;;;;;;;;6041852;23;20170;-85
2024/04/07 09:37:37;;;;;;;4.93;4.03;;;;;;;;;;6040524;23;20230;-78
2024/04/07 09:40:06;;;;;;;2.85;2.60;;;;;;;;;;6063657;23;20180;-78
2024/04/07 09:42:38;;;;;;;4.05;3.30;;;;;;;;;;6063537;23;20181;-78
2024/04/07 09:45:11;;;;;;;7.22;3.38;;;;;;;;;;6063778;23;20173;-78
2024/04/07 09:47:39;;;;;;;4.07;3.22;;;;;;;;;;6087435;23;20253;-80
2024/04/07 09:50:14;;;;;;;4.38;3.50;;;;;;;;;;6063543;23;20189;-82
2024/04/07 09:52:48;;;;;;;5.78;3.53;;;;;;;;;;6062890;23;20210;-80
2024/04/07 09:55:16;;;;;;;4.10;3.53;;;;;;;;;;6063316;23;20516;-77
2024/04/07 09:57:43;;;;;;;5.10;3.20;;;;;;;;;;6086847;23;20196;-78
2024/04/07 10:00:12;;;;;;;3.83;3.10;;;;;;;;;;6063553;23;20252;-77
2024/04/07 10:02:38;;;;;;;4.53;3.03;;;;;;;;;;6062905;23;20621;-79
2024/04/07 10:05:07;;;;;;;6.03;2.75;;;;;;;;;;6063656;23;20203;-78
2024/04/07 10:07:37;;;;;;;4.97;3.00;;;;;;;;;;6061899;23;20620;-79
2024/04/07 10:10:04;;;;;;;5.88;4.22;;;;;;;;;;6060863;23;20178;-80
2024/04/07 10:12:30;;;;;;;5.15;3.17;;;;;;;;;;6085745;23;20202;-78
2024/04/07 10:14:59;;;;;;;6.20;4.55;;;;;;;;;;6063390;23;20173;-78
2024/04/07 10:17:30;;;;;;;5.43;3.88;;;;;;;;;;6063056;23;20172;-80
2024/04/07 10:20:00;;;;;;;6.20;3.47;;;;;;;;;;6087716;23;20188;-80
2024/04/07 10:22:26;;;;;;;3.95;3.55;;;;;;;;;;6064188;23;20174;-78
2024/04/07 10:24:52;;;;;;;3.85;3.20;;;;;;;;;;6065155;23;20686;-79
2024/04/07 10:27:23;;;;;;;4.45;3.10;;;;;;;;;;6064999;23;20205;-78
2024/04/07 10:29:56;;;;;;;3.95;3.20;;;;;;;;;;6065180;23;20161;-79
2024/04/07 10:32:30;;;;;;;4.88;3.00;;;;;;;;;;6064924;23;20371;-80
2024/04/07 10:34:59;;;;;;;3.50;3.20;;;;;;;;;;6065367;23;20169;-81
2024/04/07 10:37:34;;;;;;;5.18;3.40;;;;;;;;;;6064391;23;20204;-79
2024/04/07 10:40:05;;;;;;;3.50;3.20;;;;;;;;;;6063167;23;20169;-79
2024/04/07 10:42:32;;;;;;;6.95;3.78;;;;;;;;;;6061971;23;20604;-78
2024/04/07 10:44:58;;;;;;;4.72;4.32;;;;;;;;;;6063249;23;20217;-78
2024/04/07 10:47:31;;;;;;;4.95;4.32;;;;;;;;;;6065134;23;20193;-79
2024/04/07 10:50:00;;;;;;;5.55;3.00;;;;;;;;;;6065237;23;20652;-81
2024/04/07 10:52:30;;;;;;;4.40;3.00;;;;;;;;;;6065133;23;20196;-80
2024/04/07 10:55:00;;;;;;;3.83;3.53;;;;;;;;;;6065250;23;20169;-79
2024/04/07 10:57:27;;;;;;;3.13;2.83;;;;;;;;;;6063979;23;20193;-79
2024/04/07 10:59:56;;;;;;;3.28;2.90;;;;;;;;;;6064992;23;20173;-79
2024/04/07 11:02:25;;;;;;;6.57;3.10;;;;;;;;;;6064782;23;20188;-80
2024/04/07 11:04:52;;;;;;;3.40;2.70;;;;;;;;;;6065267;23;20165;-79
2024/04/07 11:07:23;;;;;;;3.63;2.60;;;;;;;;;;6064921;23;20165;-78
2024/04/07 11:09:56;;;;;;;3.95;2.80;;;;;;;;;;6065175;23;20271;-79
2024/04/07 11:12:25;;;;;;;4.28;3.00;;;;;;;;;;6064865;23;20229;-78
2024/04/07 11:14:52;;;;;;;3.53;3.22;;;;;;;;;;6065631;23;20170;-78
2024/04/07 11:17:19;;;;;;;4.15;3.10;;;;;;;;;;6064793;23;20624;-80
2024/04/07 11:19:53;;;;;;;3.25;2.92;;;;;;;;;;6065340;23;20184;-79
2024/04/07 11:22:22;;;;;;;3.58;2.70;;;;;;;;;;6065014;23;20208;-78
2024/04/07 11:24:48;;;;;;;3.40;3.10;;;;;;;;;;6065370;23;20176;-79
2024/04/07 11:27:18;;;;;;;5.15;2.92;;;;;;;;;;6064879;23;20176;-79
2024/04/07 11:29:44;;;;;;;3.63;2.60;;;;;;;;;;6064773;23;20212;-78
2024/04/07 11:32:12;;;;;;;4.53;2.75;;;;;;;;;;6064169;23;20186;-80
2024/04/07 11:34:41;;;;;;;3.08;2.42;;;;;;;;;;6065072;23;20260;-78
2024/04/07 11:37:09;;;;;;;3.25;2.55;;;;;;;;;;6088409;23;20189;-80
2024/04/07 11:39:35;;;;;;;3.60;2.70;;;;;;;;;;6064963;23;20176;-79
2024/04/07 11:42:08;;;;;;;3.03;2.60;;;;;;;;;;6064553;23;20177;-80
2024/04/07 11:44:38;;;;;;;2.95;2.65;;;;;;;;;;6064437;23;20192;-77
2024/04/07 11:47:06;;;;;;;2.60;2.40;;;;;;;;;;6063851;23;20200;-79
2024/04/07 11:49:33;;;;;;;2.97;2.42;;;;;;;;;;6064403;23;20172;-78
2024/04/07 11:52:03;;;;;;;2.88;2.30;;;;;;;;;;6064155;23;20189;-79
2024/04/07 11:54:29;;;;;;;3.13;2.17;;;;;;;;;;6064452;23;20181;-79
2024/04/07 11:56:55;;;;;;;2.63;2.10;;;;;;;;;;6064697;23;20166;-79
2024/04/07 11:59:22;;;;;;;2.95;2.10;;;;;;;;;;6064226;23;20170;-78
2024/04/07 12:01:48;;;;;;;2.70;2.50;;;;;;;;;;6064324;23;20200;-78
2024/04/07 12:04:17;;;;;;;2.10;2.00;;;;;;;;;;6064358;23;20169;-79
2024/04/07 12:06:48;;;;;;;3.30;2.10;;;;;;;;;;6064323;23;20291;-79
2024/04/07 12:09:17;;;;;;;3.95;2.05;;;;;;;;;;6064291;23;20249;-78
2024/04/07 12:11:43;;;;;;;3.65;2.10;;;;;;;;;;6064330;23;20212;-79
2024/04/07 12:14:12;;;;;;;3.08;2.10;;;;;;;;;;6064011;23;20169;-78
2024/04/07 12:16:38;;;;;;;2.33;2.05;;;;;;;;;;6064389;23;20174;-77
2024/04/07 12:19:04;;;;;;;5.10;2.10;;;;;;;;;;6063926;23;20165;-78
2024/04/07 12:21:32;;;;;;;2.63;2.20;;;;;;;;;;6087876;23;20221;-79
2024/04/07 12:24:03;;;;;;;2.65;2.10;;;;;;;;;;6063955;23;20217;-78
2024/04/07 12:26:30;;;;;;;4.57;2.17;;;;;;;;;;6063417;23;20232;-78
2024/04/07 12:28:57;;;;;;;3.60;2.33;;;;;;;;;;6062530;23;20165;-79
2024/04/07 12:31:23;;;;;;;2.85;2.10;;;;;;;;;;6062201;23;20173;-78
2024/04/07 12:33:49;;;;;;;2.50;2.30;;;;;;;;;;6040018;23;20179;-79
2024/04/07 12:36:16;;;;;;;3.35;2.30;;;;;;;;;;6063877;23;20176;-79
2024/04/07 12:38:42;;;;;;;2.63;2.33;;;;;;;;;;6063498;23;20208;-76
2024/04/07 12:41:09;;;;;;;2.70;2.15;;;;;;;;;;6039911;23;20177;-78
2024/04/07 12:43:35;;;;;;;2.40;2.20;;;;;;;;;;6062864;23;20177;-78
2024/04/07 12:46:02;;;;;;;3.08;2.28;;;;;;;;;;6064249;23;20169;-78
2024/04/07 12:48:31;;;;;;;3.67;2.15;;;;;;;;;;6063827;23;20191;-77
2024/04/07 12:50:57;;;;;;;3.47;2.10;;;;;;;;;;6063772;23;20193;-78
2024/04/07 12:53:27;;;;;;;2.78;2.45;;;;;;;;;;6063564;23;20185;-78
2024/04/07 12:55:54;;;;;;;3.08;2.30;;;;;;;;;;6064008;23;20173;-77
2024/04/07 12:58:21;;;;;;;2.15;1.95;;;;;;;;;;6039798;23;20172;-78
2024/04/07 13:00:49;;;;;;;2.30;2.10;;;;;;;;;;6064525;23;20181;-78
2024/04/07 13:03:16;;;;;;;3.00;2.00;;;;;;;;;;6039863;23;20264;-78
2024/04/07 13:05:41;;;;;;;2.97;2.10;;;;;;;;;;6064256;23;20260;-79
2024/04/07 13:08:12;;;;;;;2.67;2.25;;;;;;;;;;6063782;23;20197;-78
2024/04/07 13:10:38;;;;;;;3.30;1.90;;;;;;;;;;6088085;23;20220;-77
2024/04/07 13:13:14;;;;;;;2.20;2.00;;;;;;;;;;6063825;23;20173;-78
2024/04/07 13:15:52;;;;;;;4.05;1.85;;;;;;;;;;5118571;27;20623;-79
2024/04/07 13:18:19;;;;;;;2.15;1.95;;;;;;;;;;5109662;28;20190;-79
2024/04/07 13:20:44;;;;;;;3.35;1.70;;;;;;;;;;5127126;27;20191;-79
2024/04/07 13:23:13;;;;;;;2.13;1.92;;;;;;;;;;5127110;27;20187;-79
2024/04/07 13:25:40;;;;;;;2.58;1.90;;;;;;;;;;5127619;27;20194;-80
2024/04/07 13:28:08;;;;;;;2.00;1.80;;;;;;;;;;5123092;28;20191;-79
2024/04/07 13:30:38;;;;;;;2.15;1.92;;;;;;;;;;5125403;28;20217;-80
2024/04/07 13:33:04;;;;;;;3.35;2.20;;;;;;;;;;5126798;27;20183;-79
2024/04/07 13:35:32;;;;;;;3.58;2.10;;;;;;;;;;5125226;28;20207;-80
2024/04/07 13:37:58;;;;;;;2.75;1.98;;;;;;;;;;5119456;28;20226;-79
2024/04/07 13:40:24;;;;;;;2.72;2.00;;;;;;;;;;5111659;28;20672;-80
2024/04/07 13:42:50;;;;;;;2.72;2.17;;;;;;;;;;5109624;28;20221;-80
2024/04/07 13:45:19;;;;;;;2.75;1.80;;;;;;;;;;5108666;28;20286;-80
2024/04/07 13:47:45;;;;;;;4.20;1.83;;;;;;;;;;5109453;28;20199;-80
2024/04/07 13:50:21;;;;;;;2.65;2.20;;;;;;;;;;5110349;28;20218;-80
2024/04/07 13:52:48;;;;;;;3.50;1.73;;;;;;;;;;5112246;28;20199;-80
2024/04/07 13:55:15;;;;;;;3.78;2.10;;;;;;;;;;5110870;28;20219;-79
2024/04/07 13:57:41;;;;;;;2.35;1.80;;;;;;;;;;5100460;28;20187;-79
2024/04/07 14:00:10;;;;;;;2.63;2.08;;;;;;;;;;5122077;28;20199;-80
2024/04/07 14:02:40;;;;;;;2.00;1.90;;;;;;;;;;5114504;28;20194;-80
2024/04/07 14:05:09;;;;;;;3.70;2.03;;;;;;;;;;5120779;28;20206;-79
2024/04/07 14:07:36;;;;;;;2.85;2.00;;;;;;;;;;5111390;28;20207;-80
2024/04/07 14:10:03;;;;;;;2.10;1.95;;;;;;;;;;5113631;28;20349;-80
2024/04/07 14:12:29;;;;;;;2.45;1.70;;;;;;;;;;5112802;28;20183;-80
2024/04/07 14:14:55;;;;;;;2.75;1.92;;;;;;;;;;5108543;28;20228;-79
2024/04/07 14:17:21;;;;;;;2.10;1.90;;;;;;;;;;5114102;28;20248;-80
2024/04/07 14:19:47;;;;;;;2.55;1.73;;;;;;;;;;5116934;28;20195;-79
2024/04/07 14:22:14;;;;;;;3.05;1.83;;;;;;;;;;5120091;28;20194;-79
2024/04/07 14:24:40;;;;;;;2.75;2.35;;;;;;;;;;5117060;28;20195;-80
2024/04/07 14:27:07;;;;;;;2.70;2.13;;;;;;;;;;5099661;28;20196;-79
2024/04/07 14:29:34;;;;;;;1.90;1.70;;;;;;;;;;5094338;28;20231;-79
2024/04/07 14:32:00;;;;;;;3.30;1.90;;;;;;;;;;5096752;28;20196;-79
2024/04/07 14:34:26;;;;;;;3.10;2.00;;;;;;;;;;5099219;28;20234;-79
2024/04/07 14:36:52;;;;;;;3.60;2.10;;;;;;;;;;5095814;28;20188;-80
2024/04/07 14:39:19;;;;;;;2.60;2.40;;;;;;;;;;5103847;28;20192;-80
2024/04/07 14:41:45;;;;;;;2.65;1.88;;;;;;;;;;5107431;28;20196;-80
2024/04/07 14:44:12;;;;;;;2.15;1.80;;;;;;;;;;5111947;28;20204;-80
2024/04/07 14:46:38;;;;;;;2.88;1.90;;;;;;;;;;5095039;28;20196;-80
2024/04/07 14:49:04;;;;;;;2.72;1.70;;;;;;;;;;5111371;28;20198;-80
2024/04/07 14:51:30;;;;;;;1.60;1.50;;;;;;;;;;5100830;28;20217;-79